Time;durP1;ratioP1;P1;durP2;ratioP2;P2;SDS_P1;SDS_P2;PMS_P1;PMS_P2;Temp;Humidity;BMP_temperature;BMP_pressure;BME280_temperature;BME280_humidity;BME280_pressure;Samples;Min_cycle;Max_cycle;Signal;HPM_P1;HPM_P2
2022/05/21 00:01:50;;;;;;;;;;;;;;;16.41;57.63;101017.66;4996840;28;6776;-75
2022/05/21 00:04:16;;;;;;;;;;;;;;;16.41;57.97;101014.19;4996961;28;7208;-75
2022/05/21 00:06:42;;;;;;;;;;;;;;;16.40;57.98;101010.72;5004864;28;7201;-75
2022/05/21 00:09:09;;;;;;;;;;;;;;;16.43;58.03;101012.53;5001359;28;6827;-75
2022/05/21 00:11:36;;;;;;;;;;;;;;;16.44;57.69;101014.28;5001606;28;7038;-75
2022/05/21 00:14:02;;;;;;;;;;;;;;;16.44;57.80;101020.34;5003684;28;8092;-75
2022/05/21 00:16:29;;;;;;;;;;;;;;;16.44;57.83;101014.28;4997460;28;8115;-75
2022/05/21 00:18:56;;;;;;;;;;;;;;;16.43;57.87;101013.44;4999247;28;6816;-75
2022/05/21 00:21:23;;;;;;;;;;;;;;;16.45;57.60;101019.53;4996103;28;7238;-75
2022/05/21 00:23:50;;;;;;;;;;;;;;;16.45;57.67;101018.63;4991833;28;7488;-75
2022/05/21 00:26:17;;;;;;;;;;;;;;;16.43;57.58;101021.19;5008050;28;6792;-75
2022/05/21 00:28:46;;;;;;;;;;;;;;;16.43;57.86;101021.19;4998622;28;6804;-75
2022/05/21 00:31:15;;;;;;;;;;;;;;;16.42;57.58;101022.03;4977146;28;6955;-75
2022/05/21 00:33:43;;;;;;;;;;;;;;;16.41;57.63;101025.41;4993167;28;6800;-75
2022/05/21 00:36:10;;;;;;;;;;;;;;;16.40;57.68;101023.66;5002877;28;6808;-75
2022/05/21 00:38:38;;;;;;;;;;;;;;;16.37;57.52;101019.28;5003652;28;6800;-75
2022/05/21 00:41:06;;;;;;;;;;;;;;;16.37;57.83;101013.22;5001675;28;6982;-75
2022/05/21 00:43:50;;;;;;;;;;;;;;;16.36;57.44;101006.28;4993709;28;6816;-75
2022/05/21 00:46:22;;;;;;;;;;;;;;;16.32;57.61;101012.16;5007158;28;7225;-75
2022/05/21 00:49:02;;;;;;;;;;;;;;;16.31;57.32;101019.06;5001922;28;7186;-75
2022/05/21 00:51:33;;;;;;;;;;;;;;;16.30;56.92;101008.66;5022491;28;7015;-75
2022/05/21 00:54:04;;;;;;;;;;;;;;;16.27;57.42;101016.31;5006320;28;6958;-75
2022/05/21 00:56:36;;;;;;;;;;;;;;;16.26;57.45;101010.25;5008591;28;6807;-75
2022/05/21 01:01:54;;;;;;;;;;;;;;;16.24;57.37;101002.44;5006424;28;6839;-75
2022/05/21 01:04:19;;;;;;;;;;;;;;;16.22;56.92;101009.28;5004059;28;6924;-75
2022/05/21 01:06:45;;;;;;;;;;;;;;;16.24;57.45;101017.97;5004030;28;7014;-75
2022/05/21 01:09:11;;;;;;;;;;;;;;;16.21;56.85;101015.25;4996189;28;7237;-75
2022/05/21 01:11:37;;;;;;;;;;;;;;;16.21;57.52;101012.66;5000917;28;6869;-75
2022/05/21 01:14:08;;;;;;;;;;;;;;;16.19;57.20;101006.56;5003938;28;7052;-75
2022/05/21 01:16:34;;;;;;;;;;;;;;;16.18;57.05;101016.88;5004819;28;6827;-75
2022/05/21 01:19:06;;;;;;;;;;;;;;;16.16;57.16;101016.81;5006332;28;6811;-75
2022/05/21 01:21:33;;;;;;;;;;;;;;;16.16;57.10;101013.34;5003453;28;7303;-75
2022/05/21 01:23:59;;;;;;;;;;;;;;;16.18;57.16;101024.66;5002719;28;6796;-75
2022/05/21 01:26:27;;;;;;;;;;;;;;;16.19;56.48;101023.81;5003211;28;6819;-75
2022/05/21 01:28:54;;;;;;;;;;;;;;;16.18;57.25;101027.22;4989458;28;7231;-75
2022/05/21 01:31:19;;;;;;;;;;;;;;;16.17;56.67;101028.03;4999912;28;7067;-75
2022/05/21 01:33:45;;;;;;;;;;;;;;;16.17;57.16;101026.34;4988869;28;7083;-75
2022/05/21 01:36:14;;;;;;;;;;;;;;;16.21;56.77;101023.00;5005026;28;6941;-75
2022/05/21 01:38:41;;;;;;;;;;;;;;;16.28;56.95;101013.78;5004717;28;6905;-75
2022/05/21 01:41:09;;;;;;;;;;;;;;;16.35;56.97;101020.91;5002383;28;6804;-75
2022/05/21 01:46:21;;;;;;;;;;;;;;;16.52;56.77;101020.59;5003708;28;6991;-75
2022/05/21 01:48:46;;;;;;;;;;;;;;;16.58;56.14;101017.34;5004492;28;6808;-75
2022/05/21 01:51:13;;;;;;;;;;;;;;;16.59;56.17;101004.47;4998374;28;7143;-75
2022/05/21 01:53:40;;;;;;;;;;;;;;;16.55;56.02;100992.22;4997309;28;7056;-75
2022/05/21 01:56:08;;;;;;;;;;;;;;;16.51;55.58;100996.47;5002829;28;6894;-75
2022/05/21 01:58:35;;;;;;;;;;;;;;;16.46;55.41;100998.00;5003116;28;7015;-75
2022/05/21 02:01:01;;;;;;;;;;;;;;;16.42;55.33;101001.31;4997152;28;6804;-75
2022/05/21 02:03:27;;;;;;;;;;;;;;;16.37;55.44;100998.59;5000994;28;7186;-75
2022/05/21 02:05:53;;;;;;;;;;;;;;;16.34;55.52;100997.59;5005905;28;7833;-75
2022/05/21 02:08:19;;;;;;;;;;;;;;;16.29;55.60;100997.44;4999994;28;6975;-75
2022/05/21 02:10:46;;;;;;;;;;;;;;;16.26;55.37;100994.72;4999341;28;6796;-75
2022/05/21 02:13:20;;;;;;;;;;;;;;;16.23;55.63;100994.63;5000020;28;6807;-75
2022/05/21 02:15:47;;;;;;;;;;;;;;;16.21;55.67;100996.28;4998636;28;6819;-75
2022/05/21 02:18:12;;;;;;;;;;;;;;;16.16;55.91;100996.13;4983583;28;7189;-75
2022/05/21 02:20:39;;;;;;;;;;;;;;;16.13;55.23;100996.03;5001248;28;7402;-75
2022/05/21 02:23:05;;;;;;;;;;;;;;;16.10;55.65;100994.22;5005034;28;6811;-75
2022/05/21 02:25:31;;;;;;;;;;;;;;;16.08;55.48;101000.16;4988738;28;7600;-75
2022/05/21 02:27:57;;;;;;;;;;;;;;;16.03;55.55;100992.22;5005981;28;6799;-75
2022/05/21 02:30:23;;;;;;;;;;;;;;;16.04;55.68;100998.31;5003310;28;6871;-75
2022/05/21 02:32:49;;;;;;;;;;;;;;;16.02;55.75;101000.81;5000356;28;6875;-75
2022/05/21 02:35:15;;;;;;;;;;;;;;;16.03;55.95;101004.25;4987792;28;6942;-75
2022/05/21 02:40:25;;;;;;;;;;;;;;;16.03;55.60;100996.50;5004510;28;6884;-75
2022/05/21 02:42:51;;;;;;;;;;;;;;;16.05;56.08;101000.06;4988608;28;6792;-75
2022/05/21 02:45:27;;;;;;;;;;;;;;;16.08;56.64;101000.16;5005290;28;7026;-75
2022/05/21 02:47:53;;;;;;;;;;;;;;;16.16;56.08;100997.81;4987345;28;7120;-75
2022/05/21 02:50:24;;;;;;;;;;;;;;;16.24;56.13;100993.81;5001218;28;7248;-75
2022/05/21 02:52:50;;;;;;;;;;;;;;;16.31;56.24;100998.34;4998409;28;7031;-75
2022/05/21 02:55:18;;;;;;;;;;;;;;;16.36;55.93;100995.94;5003478;28;6803;-75
2022/05/21 02:57:44;;;;;;;;;;;;;;;16.40;55.42;100996.91;5003797;28;6899;-75
2022/05/21 03:00:21;;;;;;;;;;;;;;;16.42;55.69;100996.16;4979295;28;7225;-75
2022/05/21 03:02:47;;;;;;;;;;;;;;;16.40;55.80;101000.38;5002451;28;6890;-75
2022/05/21 03:05:13;;;;;;;;;;;;;;;16.38;55.40;101010.69;5002471;28;6800;-75
2022/05/21 03:07:45;;;;;;;;;;;;;;;16.35;55.17;101005.38;5002982;28;7120;-75
2022/05/21 03:10:20;;;;;;;;;;;;;;;16.32;55.12;101015.63;4994431;28;7977;-75
2022/05/21 03:12:57;;;;;;;;;;;;;;;16.28;55.21;101010.31;5005906;28;6815;-75
2022/05/21 03:15:33;;;;;;;;;;;;;;;16.26;55.24;101014.56;5004507;28;6819;-75
2022/05/21 03:18:05;;;;;;;;;;;;;;;16.23;54.84;101015.31;5005211;28;6892;-75
2022/05/21 03:20:31;;;;;;;;;;;;;;;16.20;55.35;101007.47;5000130;28;6855;-75
2022/05/21 03:22:57;;;;;;;;;;;;;;;16.20;55.24;101017.81;5002661;28;6801;-75
2022/05/21 03:25:23;;;;;;;;;;;;;;;16.18;54.76;101012.56;4985985;28;6972;-75
2022/05/21 03:27:50;;;;;;;;;;;;;;;16.18;55.38;101020.34;5004936;28;6791;-75
2022/05/21 03:30:20;;;;;;;;;;;;;;;16.20;55.18;101013.50;5003786;28;7048;-75
2022/05/21 03:32:46;;;;;;;;;;;;;;;16.23;55.26;101016.22;4988993;28;6808;-75
2022/05/21 03:35:15;;;;;;;;;;;;;;;16.29;55.41;101014.66;5004830;28;6875;-75
2022/05/21 03:37:40;;;;;;;;;;;;;;;16.35;55.31;101007.97;5005565;28;6844;-75
2022/05/21 03:40:12;;;;;;;;;;;;;;;16.42;55.16;101013.38;5002799;28;6828;-75
2022/05/21 03:42:38;;;;;;;;;;;;;;;16.48;55.02;101018.75;5002365;28;6815;-75
2022/05/21 03:45:05;;;;;;;;;;;;;;;16.56;54.60;101017.28;5003666;28;6812;-75
2022/05/21 03:47:31;;;;;;;;;;;;;;;16.60;55.15;101015.69;5018983;28;7078;-75
2022/05/21 03:49:57;;;;;;;;;;;;;;;16.66;54.54;101026.25;4975588;28;7015;-75
2022/05/21 03:52:22;;;;;;;;;;;;;;;16.71;54.29;101028.97;5003128;28;6827;-75
2022/05/21 03:54:48;;;;;;;;;;;;;;;16.74;54.54;101027.38;5003936;28;6905;-75
2022/05/21 03:57:15;;;;;;;;;;;;;;;16.76;54.62;101017.94;5001744;28;6800;-75
2022/05/21 03:59:42;;;;;;;;;;;;;;;16.78;53.95;101021.44;5005317;28;6816;-75
2022/05/21 04:02:08;;;;;;;;;;;;;;;16.84;54.52;101023.34;4998573;28;6804;-75
2022/05/21 04:04:34;;;;;;;;;;;;;;;16.89;53.86;101039.03;5001273;28;7254;-75
2022/05/21 04:06:59;;;;;;;;;;;;;;;16.92;54.19;101036.56;5019109;28;6792;-75
2022/05/21 04:09:28;;;;;;;;;;;;;;;16.94;54.03;101035.75;5005061;28;6835;-75
2022/05/21 04:11:57;;;;;;;;;;;;;;;16.98;53.79;101034.16;4976263;28;6808;-75
2022/05/21 04:14:28;;;;;;;;;;;;;;;17.02;54.08;101043.84;5003235;28;7877;-75
2022/05/21 04:16:59;;;;;;;;;;;;;;;17.06;54.13;101042.22;5002023;28;7232;-75
2022/05/21 04:19:27;;;;;;;;;;;;;;;17.12;53.74;101036.34;5002402;28;6820;-75
2022/05/21 04:21:53;;;;;;;;;;;;;;;17.13;53.79;101038.13;5002179;28;6808;-75
2022/05/21 04:24:19;;;;;;;;;;;;;;;17.14;53.26;101051.13;5004644;28;7225;-75
2022/05/21 04:26:46;;;;;;;;;;;;;;;17.15;53.48;101051.97;4977388;28;7103;-75
2022/05/21 04:29:14;;;;;;;;;;;;;;;17.14;53.56;101045.94;5003818;28;6795;-75
2022/05/21 04:31:40;;;;;;;;;;;;;;;17.12;53.40;101052.75;5001977;28;7313;-75
2022/05/21 04:34:06;;;;;;;;;;;;;;;17.08;53.70;101056.97;5005187;28;6999;-75
2022/05/21 04:36:32;;;;;;;;;;;;;;;17.05;53.70;101056.00;4984034;28;6930;-75
2022/05/21 04:38:59;;;;;;;;;;;;;;;16.99;53.44;101056.63;5004097;28;7153;-75
2022/05/21 04:41:25;;;;;;;;;;;;;;;16.97;53.95;101057.44;4982046;28;7039;-75
2022/05/21 04:43:53;;;;;;;;;;;;;;;16.95;53.86;101059.97;5004428;28;6843;-75
2022/05/21 04:46:21;;;;;;;;;;;;;;;16.95;54.41;101065.13;5003008;28;6812;-75
2022/05/21 04:48:48;;;;;;;;;;;;;;;17.07;55.24;101062.97;4987749;28;7255;-75
2022/05/21 04:51:15;;;;;;;;;;;;;;;17.28;55.22;101064.47;5000079;28;6819;-75
2022/05/21 04:53:41;;;;;;;;;;;;;;;17.52;54.41;101060.88;4990598;28;6807;-75
2022/05/21 04:56:08;;;;;;;;;;;;;;;17.66;54.17;101052.63;5015278;28;6811;-75
2022/05/21 04:58:35;;;;;;;;;;;;;;;17.69;53.59;101058.78;5001190;28;7191;-75
2022/05/21 05:01:04;;;;;;;;;;;;;;;17.69;53.33;101068.28;4993953;28;7201;-75
2022/05/21 05:03:31;;;;;;;;;;;;;;;17.69;53.50;101081.25;5002675;28;7015;-75
2022/05/21 05:05:57;;;;;;;;;;;;;;;17.68;52.90;101076.91;4995366;28;6823;-75
2022/05/21 05:08:23;;;;;;;;;;;;;;;17.68;53.26;101076.91;5004148;28;6892;-75
2022/05/21 05:10:50;;;;;;;;;;;;;;;17.67;52.97;101080.31;4977255;28;7047;-75
2022/05/21 05:13:17;;;;;;;;;;;;;;;17.66;53.35;101089.81;5002248;28;7230;-75
2022/05/21 05:15:46;;;;;;;;;;;;;;;17.67;53.19;101088.97;5002532;28;6804;-75
2022/05/21 05:18:21;;;;;;;;;;;;;;;17.72;53.49;101086.50;5002414;28;7701;-75
2022/05/21 05:20:48;;;;;;;;;;;;;;;17.77;53.23;101097.91;4996189;28;6803;-75
2022/05/21 05:23:14;;;;;;;;;;;;;;;17.84;53.78;101097.25;5000790;28;6981;-75
2022/05/21 05:25:40;;;;;;;;;;;;;;;17.88;52.85;101093.91;4998849;28;6868;-75
2022/05/21 05:28:23;;;;;;;;;;;;;;;17.91;53.26;101091.41;4996998;28;7282;-75
2022/05/21 05:30:49;;;;;;;;;;;;;;;17.95;53.23;101088.88;4965341;28;6987;-75
2022/05/21 05:33:16;;;;;;;;;;;;;;;17.99;53.48;101095.94;5001626;28;6876;-75
2022/05/21 05:35:43;;;;;;;;;;;;;;;18.02;53.56;101094.31;4978578;28;6815;-74
2022/05/21 05:38:12;;;;;;;;;;;;;;;18.07;52.77;101102.25;5002103;28;6808;-75
2022/05/21 05:40:41;;;;;;;;;;;;;;;18.12;52.85;101100.66;5002924;28;7168;-75
2022/05/21 05:43:07;;;;;;;;;;;;;;;18.18;53.36;101099.94;4995140;28;6847;-75
2022/05/21 05:45:33;;;;;;;;;;;;;;;18.23;53.15;101094.88;5003783;28;6970;-75
2022/05/21 05:47:59;;;;;;;;;;;;;;;18.30;53.10;101096.81;5004572;28;7099;-75
2022/05/21 05:50:25;;;;;;;;;;;;;;;18.38;52.99;101095.31;5005530;28;6870;-75
2022/05/21 05:52:51;;;;;;;;;;;;;;;18.48;53.02;101095.56;5000713;28;7189;-75
2022/05/21 05:55:16;;;;;;;;;;;;;;;18.59;53.16;101096.72;5015384;28;6819;-75
2022/05/21 05:57:42;;;;;;;;;;;;;;;18.73;53.16;101095.38;5003449;28;6787;-75
2022/05/21 06:00:09;;;;;;;;;;;;;;;18.88;52.96;101091.38;5001288;28;6796;-75
2022/05/21 06:05:24;;;;;;;;;;;;;;;19.08;52.69;101091.03;4993992;28;6912;-75
2022/05/21 06:08:01;;;;;;;;;;;;;;;19.13;52.43;101092.03;5007485;28;7142;-75
2022/05/21 06:10:37;;;;;;;;;;;;;;;19.22;51.99;101091.34;5006620;28;6824;-75
2022/05/21 06:13:04;;;;;;;;;;;;;;;19.31;52.34;101101.06;5003858;28;6895;-75
2022/05/21 06:15:30;;;;;;;;;;;;;;;19.43;52.31;101099.63;5006504;28;7201;-75
2022/05/21 06:17:56;;;;;;;;;;;;;;;19.59;51.54;101092.19;5007426;28;7011;-75
2022/05/21 06:20:26;;;;;;;;;;;;;;;19.70;51.36;101095.00;5018258;28;7349;-75
2022/05/21 06:22:52;;;;;;;;;;;;;;;19.78;51.17;101100.38;5005443;28;6937;-75
2022/05/21 06:25:22;;;;;;;;;;;;;;;19.82;50.96;101099.59;4988027;28;7158;-75
2022/05/21 06:27:51;;;;;;;;;;;;;;;19.87;51.32;101103.19;5003616;28;7213;-75
2022/05/21 06:30:21;;;;;;;;;;;;;;;19.93;51.11;101108.53;5006315;28;7253;-75
2022/05/21 06:32:47;;;;;;;;;;;;;;;20.01;50.64;101105.22;5007021;28;6966;-75
2022/05/21 06:35:15;;;;;;;;;;;;;;;20.06;50.20;101104.44;4994860;28;6796;-75
2022/05/21 06:37:41;;;;;;;;;;;;;;;20.06;49.72;101116.59;5000754;28;7023;-75
2022/05/21 06:40:09;;;;;;;;;;;;;;;20.04;49.54;101111.34;4981918;28;7227;-75
2022/05/21 06:42:35;;;;;;;;;;;;;;;20.04;49.98;101116.56;4984181;28;6823;-75
2022/05/21 06:45:02;;;;;;;;;;;;;;;20.06;49.38;101108.78;4991597;28;6825;-75
2022/05/21 06:47:27;;;;;;;;;;;;;;;20.08;49.47;101113.16;4972259;28;7016;-75
2022/05/21 06:49:55;;;;;;;;;;;;;;;20.09;49.09;101114.06;4989390;28;7217;-74
2022/05/21 06:52:24;;;;;;;;;;;;;;;20.07;49.23;101115.75;4979533;28;7147;-75
2022/05/21 06:54:51;;;;;;;;;;;;;;;20.05;49.54;101113.09;4997230;28;8092;-74
2022/05/21 06:57:18;;;;;;;;;;;;;;;20.06;49.68;101114.84;4994527;28;6879;-74
2022/05/21 06:59:45;;;;;;;;;;;;;;;20.15;49.58;101121.09;5002828;28;6819;-74
2022/05/21 07:02:10;;;;;;;;;;;;;;;20.33;49.72;101120.56;4998486;28;6804;-74
2022/05/21 07:07:32;;;;;;;;;;;;;;;20.77;49.17;101119.66;5005688;28;7173;-74
2022/05/21 07:10:00;;;;;;;;;;;;;;;20.90;48.82;101118.13;4979850;28;6892;-75
2022/05/21 07:12:28;;;;;;;;;;;;;;;21.01;48.58;101126.16;5001788;28;6868;-75
2022/05/21 07:14:53;;;;;;;;;;;;;;;21.11;48.19;101124.59;5001847;28;7184;-75
2022/05/21 07:17:19;;;;;;;;;;;;;;;21.17;48.09;101122.94;4995938;28;7062;-75
2022/05/21 07:19:45;;;;;;;;;;;;;;;21.23;47.57;101124.75;5002799;28;6799;-75
2022/05/21 07:22:11;;;;;;;;;;;;;;;21.27;47.35;101136.97;4986613;28;6866;-75
2022/05/21 07:24:42;;;;;;;;;;;;;;;21.29;47.07;101134.41;5002616;28;6868;-75
2022/05/21 07:27:11;;;;;;;;;;;;;;;21.27;46.88;101131.75;5003798;28;7026;-75
2022/05/21 07:29:37;;;;;;;;;;;;;;;21.25;47.14;101141.28;5020300;28;6887;-75
2022/05/21 07:32:05;;;;;;;;;;;;;;;21.27;47.05;101134.38;5004471;28;6820;-75
2022/05/21 07:34:30;;;;;;;;;;;;;;;21.29;46.86;101142.22;5001737;28;7244;-75
2022/05/21 07:36:56;;;;;;;;;;;;;;;21.29;46.95;101139.63;5002310;28;7094;-75
2022/05/21 07:39:22;;;;;;;;;;;;;;;21.30;46.91;101137.03;5004136;28;7245;-75
2022/05/21 07:41:48;;;;;;;;;;;;;;;21.36;46.34;101136.25;5002090;28;6855;-75
2022/05/21 07:44:13;;;;;;;;;;;;;;;21.39;46.36;101135.41;5004117;28;6876;-74
2022/05/21 07:46:39;;;;;;;;;;;;;;;21.41;46.33;101134.59;5003149;28;6805;-74
2022/05/21 07:49:05;;;;;;;;;;;;;;;21.50;46.49;101137.31;4998480;28;6870;-74
2022/05/21 07:51:30;;;;;;;;;;;;;;;21.61;46.67;101139.22;5003240;28;6815;-74
2022/05/21 07:53:56;;;;;;;;;;;;;;;21.74;46.74;101141.19;5001123;28;6927;-74
2022/05/21 07:56:22;;;;;;;;;;;;;;;22.02;47.33;101136.31;4986389;28;6883;-74
2022/05/21 07:58:49;;;;;;;;;;;;;;;22.36;47.02;101134.94;5004698;28;7161;-74
2022/05/21 08:01:16;;;;;;;;;;;;;;;22.57;46.25;101137.81;4999828;28;7117;-74
2022/05/21 08:03:43;;;;;;;;;;;;;;;22.64;45.92;101137.88;4999592;28;6811;-74
2022/05/21 08:06:09;;;;;;;;;;;;;;;22.70;45.71;101135.34;5002453;28;7114;-74
2022/05/21 08:08:35;;;;;;;;;;;;;;;22.77;45.28;101149.31;4984464;28;7046;-74
2022/05/21 08:11:01;;;;;;;;;;;;;;;22.85;44.96;101148.53;4968622;28;7155;-75
2022/05/21 08:13:27;;;;;;;;;;;;;;;23.00;45.58;101153.00;5002465;28;6827;-74
2022/05/21 08:15:52;;;;;;;;;;;;;;;23.24;44.92;101153.19;4997495;28;6799;-74
2022/05/21 08:18:18;;;;;;;;;;;;;;;23.51;44.12;101159.50;4981706;28;6796;-74
2022/05/21 08:20:44;;;;;;;;;;;;;;;23.75;43.67;101144.81;4992999;28;7959;-74
2022/05/21 08:28:46;;;;;;;;;;;;;;;24.48;41.79;101145.97;4996033;28;6981;-74
2022/05/21 08:31:12;;;;;;;;;;;;;;;24.59;41.42;101147.75;5000701;28;7897;-74
2022/05/21 08:33:38;;;;;;;;;;;;;;;24.58;40.82;101151.25;5003698;28;6828;-74
2022/05/21 08:36:04;;;;;;;;;;;;;;;24.54;40.41;101156.47;5000380;28;6792;-74
2022/05/21 08:38:30;;;;;;;;;;;;;;;24.57;40.69;101146.88;5004259;28;6800;-74
2022/05/21 08:41:03;;;;;;;;;;;;;;;24.70;40.45;101153.88;4986557;28;6791;-74
2022/05/21 08:44:12;;;;;;;;;;;;;;;24.95;40.69;101151.31;5002992;28;6811;-74
2022/05/21 08:47:04;;;;;;;;;;;;;;;25.16;39.60;101154.78;4998451;28;6999;-74
2022/05/21 08:49:39;;;;;;;;;;;;;;;25.08;38.94;101166.16;5004189;28;6824;-74
2022/05/21 08:52:29;;;;;;;;;;;;;;;25.06;39.07;101164.41;5004148;28;7238;-74
2022/05/21 08:55:00;;;;;;;;;;;;;;;25.16;39.27;101160.03;5005567;28;7116;-74
2022/05/21 08:57:43;;;;;;;;;;;;;;;25.08;39.12;101153.03;5003413;28;7137;-74
2022/05/21 09:00:12;;;;;;;;;;;;;;;25.09;38.73;101154.78;4976947;28;6836;-74
2022/05/21 09:02:38;;;;;;;;;;;;;;;25.28;39.44;101160.00;5000945;28;6974;-74
2022/05/21 09:05:09;;;;;;;;;;;;;;;25.57;38.81;101160.88;5002994;28;7154;-74
2022/05/21 09:08:13;;;;;;;;;;;;;;;25.88;38.37;101161.69;4981445;28;6823;-75
2022/05/21 09:11:06;;;;;;;;;;;;;;;26.27;38.06;101150.13;5006804;28;7122;-74
2022/05/21 09:13:41;;;;;;;;;;;;;;;26.33;37.65;101147.47;5000081;28;6850;-74
2022/05/21 09:18:57;;;;;;;;;;;;;;;26.48;37.22;101141.25;4994056;28;6876;-75
2022/05/21 09:21:27;;;;;;;;;;;;;;;26.64;36.80;101141.16;5002093;28;8389;-75
2022/05/21 09:23:55;;;;;;;;;;;;;;;26.59;36.48;101141.19;5006327;28;6796;-75
2022/05/21 09:26:26;;;;;;;;;;;;;;;26.54;36.48;101135.06;4994501;28;6888;-75
2022/05/21 09:29:18;;;;;;;;;;;;;;;26.27;35.56;101137.88;4999508;28;6796;-75
2022/05/21 09:31:44;;;;;;;;;;;;;;;25.81;35.46;101138.94;5007817;28;6804;-75
2022/05/21 09:34:26;;;;;;;;;;;;;;;25.31;36.26;101132.91;4995556;28;6828;-74
2022/05/21 09:36:53;;;;;;;;;;;;;;;24.95;36.72;101141.69;5006718;28;6815;-74
2022/05/21 09:39:39;;;;;;;;;;;;;;;24.69;36.66;101147.78;5016082;28;7024;-74
2022/05/21 09:45:26;;;;;;;;;;;;;;;24.77;38.38;101142.53;5005410;28;6970;-74
2022/05/21 09:48:01;;;;;;;;;;;;;;;25.65;38.36;101133.72;5022456;28;7457;-74
2022/05/21 09:50:27;;;;;;;;;;;;;;;26.60;37.65;101138.53;5005567;28;6987;-74
2022/05/21 09:52:54;;;;;;;;;;;;;;;27.48;36.63;101138.66;5002626;28;6808;-74
2022/05/21 09:55:29;;;;;;;;;;;;;;;28.12;35.10;101133.53;4998247;28;9020;-73
2022/05/21 09:58:12;;;;;;;;;;;;;;;28.38;34.36;101134.94;4983249;28;6981;-73
2022/05/21 10:00:38;;;;;;;;;;;;;;;28.32;33.91;101131.53;5005195;28;7337;-74
2022/05/21 10:03:09;;;;;;;;;;;;;;;27.96;33.83;101132.88;5004878;28;7089;-74
2022/05/21 10:05:45;;;;;;;;;;;;;;;27.43;33.54;101140.50;5007093;28;7134;-74
2022/05/21 10:12:00;;;;;;;;;;;;;;;26.20;34.70;101139.66;4997168;28;6839;-74
2022/05/21 10:14:38;;;;;;;;;;;;;;;26.29;35.46;101136.09;5018699;28;7066;-74
2022/05/21 10:17:33;;;;;;;;;;;;;;;26.87;35.00;101143.59;5018984;28;6815;-74
2022/05/21 10:20:26;;;;;;;;;;;;;;;27.59;35.01;101141.22;5005819;28;6820;-74
2022/05/21 10:23:31;;;;;;;;;;;;;;;28.73;34.42;101134.44;5019770;28;6850;-74
2022/05/21 10:26:36;;;;;;;;;;;;;;;29.57;32.33;101139.13;5005106;28;6816;-74
2022/05/21 10:29:44;;;;;;;;;;;;;;;29.38;31.95;101133.31;4999409;28;7215;-75
2022/05/21 10:32:57;;;;;;;;;;;;;;;29.26;32.36;101131.78;4982403;28;7173;-74
2022/05/21 10:36:24;;;;;;;;;;;;;;;29.56;31.62;101131.25;5003089;28;6849;-74
2022/05/21 10:39:02;;;;;;;;;;;;;;;29.68;31.26;101135.41;5001554;28;7030;-74
2022/05/21 10:42:17;;;;;;;;;;;;;;;29.36;30.95;101132.47;5002800;28;6800;-74
2022/05/21 10:45:16;;;;;;;;;;;;;;;29.04;31.60;101139.22;5000757;28;7129;-74
2022/05/21 10:48:22;;;;;;;;;;;;;;;28.65;31.49;101142.47;5003982;28;6864;-74
2022/05/21 10:51:28;;;;;;;;;;;;;;;28.05;31.58;101146.78;4998557;28;6831;-74
2022/05/21 10:54:40;;;;;;;;;;;;;;;27.97;32.70;101145.16;4999542;28;7350;-74
2022/05/21 10:57:53;;;;;;;;;;;;;;;28.53;32.32;101140.88;5003961;28;6812;-74
2022/05/21 11:00:34;;;;;;;;;;;;;;;28.55;31.34;101136.44;4988508;28;6807;-74
2022/05/21 11:03:58;;;;;;;;;;;;;;;28.46;31.97;101137.47;5003892;28;6796;-74
2022/05/21 11:06:30;;;;;;;;;;;;;;;28.65;31.51;101142.47;5004130;28;7043;-74
2022/05/21 11:09:30;;;;;;;;;;;;;;;28.92;31.93;101141.16;4977129;28;7010;-74
2022/05/21 11:12:03;;;;;;;;;;;;;;;29.72;31.92;101123.88;5004515;28;6816;-74
2022/05/21 11:14:57;;;;;;;;;;;;;;;30.76;30.78;101130.38;5005077;28;6796;-74
2022/05/21 11:17:54;;;;;;;;;;;;;;;31.48;29.20;101127.63;5005221;28;6816;-74
2022/05/21 11:20:31;;;;;;;;;;;;;;;31.30;28.91;101132.56;4997907;28;7187;-74
2022/05/21 11:23:17;;;;;;;;;;;;;;;30.81;28.66;101132.03;4977422;28;6979;-74
2022/05/21 11:26:18;;;;;;;;;;;;;;;30.48;28.84;101124.88;4998327;28;6954;-74
2022/05/21 11:28:58;;;;;;;;;;;;;;;30.06;28.92;101134.63;5000785;28;7324;-74
2022/05/21 11:37:23;;;;;;;;;;;;;;;28.62;29.44;101137.22;5004278;28;6839;-74
2022/05/21 11:39:54;;;;;;;;;;;;;;;28.16;29.94;101146.66;4991744;28;7843;-74
2022/05/21 11:42:33;;;;;;;;;;;;;;;27.71;29.81;101140.19;5003135;28;7225;-74
2022/05/21 11:45:24;;;;;;;;;;;;;;;27.39;30.82;101141.41;5002149;28;6808;-74
2022/05/21 11:48:10;;;;;;;;;;;;;;;27.78;31.58;101133.97;5005129;28;6924;-74
2022/05/21 11:50:35;;;;;;;;;;;;;;;28.64;31.17;101135.47;4989039;28;6816;-74
2022/05/21 11:53:32;;;;;;;;;;;;;;;29.24;30.19;101126.50;5001817;28;6780;-74
2022/05/21 11:56:08;;;;;;;;;;;;;;;29.44;29.40;101127.94;5003083;28;7275;-74
2022/05/21 11:58:58;;;;;;;;;;;;;;;29.96;29.66;101126.91;5002920;28;6902;-74
2022/05/21 12:01:38;;;;;;;;;;;;;;;30.46;28.74;101129.31;5002271;28;6940;-74
2022/05/21 12:04:07;;;;;;;;;;;;;;;30.96;28.59;101121.06;5000877;28;7235;-74
2022/05/21 12:06:42;;;;;;;;;;;;;;;31.53;27.27;101123.09;5003562;28;7260;-75
2022/05/21 12:09:28;;;;;;;;;;;;;;;32.12;27.74;101114.31;5003357;28;6980;-75
2022/05/21 12:12:23;;;;;;;;;;;;;;;32.85;27.24;101112.88;5003537;28;6823;-75
2022/05/21 12:15:18;;;;;;;;;;;;;;;33.50;26.52;101111.47;5002992;28;6819;-75
2022/05/21 12:17:53;;;;;;;;;;;;;;;33.92;25.86;101103.69;5003244;28;7221;-75
2022/05/21 12:20:42;;;;;;;;;;;;;;;33.99;25.77;101099.00;5004205;28;7232;-75
2022/05/21 12:23:14;;;;;;;;;;;;;;;33.50;25.70;101100.84;5001116;28;6895;-74
2022/05/21 12:25:56;;;;;;;;;;;;;;;32.69;25.90;101097.47;4998653;28;6820;-74
2022/05/21 12:28:29;;;;;;;;;;;;;;;31.89;25.72;101106.19;5002458;28;6984;-74
2022/05/21 12:31:09;;;;;;;;;;;;;;;31.02;26.42;101112.09;4999044;28;6808;-74
2022/05/21 12:34:05;;;;;;;;;;;;;;;30.32;26.59;101106.72;5000268;28;6846;-74
2022/05/21 12:37:04;;;;;;;;;;;;;;;30.12;27.20;101093.09;5002103;28;6816;-74
2022/05/21 12:40:03;;;;;;;;;;;;;;;30.67;27.97;101098.00;5005790;28;6815;-74
2022/05/21 12:42:46;;;;;;;;;;;;;;;31.32;27.01;101098.97;4995695;28;6887;-74
2022/05/21 12:45:36;;;;;;;;;;;;;;;31.94;26.49;101091.88;5004413;28;6884;-74
2022/05/21 12:48:21;;;;;;;;;;;;;;;32.64;26.12;101081.72;5002967;28;7261;-74
2022/05/21 12:51:04;;;;;;;;;;;;;;;33.17;25.85;101084.34;4990629;28;6808;-74
2022/05/21 12:53:43;;;;;;;;;;;;;;;33.16;25.89;101087.94;5000786;28;6823;-74
2022/05/21 12:56:24;;;;;;;;;;;;;;;32.63;25.54;101090.59;5006252;28;6985;-74
2022/05/21 12:59:33;;;;;;;;;;;;;;;31.92;25.97;101087.53;5018562;28;7208;-74
2022/05/21 13:02:02;;;;;;;;;;;;;;;31.37;25.87;101089.09;4991969;28;7180;-74
2022/05/21 13:04:31;;;;;;;;;;;;;;;30.99;26.07;101090.97;5006636;28;6812;-74
2022/05/21 13:07:15;;;;;;;;;;;;;;;31.08;26.50;101074.00;5005639;28;6800;-74
2022/05/21 13:10:00;;;;;;;;;;;;;;;31.52;26.34;101077.19;5005725;28;6945;-74
2022/05/21 13:12:37;;;;;;;;;;;;;;;31.62;25.80;101079.56;5005872;28;6831;-74
2022/05/21 13:15:04;;;;;;;;;;;;;;;31.25;25.35;101084.16;4980952;28;6836;-74
2022/05/21 13:17:45;;;;;;;;;;;;;;;30.73;26.42;101085.47;4999052;28;6796;-74
2022/05/21 13:20:53;;;;;;;;;;;;;;;30.15;26.71;101082.47;5002823;28;7118;-74
2022/05/21 13:23:40;;;;;;;;;;;;;;;29.65;26.99;101083.53;4996093;28;7030;-74
2022/05/21 13:26:07;;;;;;;;;;;;;;;29.28;27.20;101086.88;5006992;28;6812;-73
2022/05/21 13:28:33;;;;;;;;;;;;;;;29.04;27.31;101084.69;4971757;28;7415;-73
2022/05/21 13:30:58;;;;;;;;;;;;;;;28.93;27.65;101081.38;4996587;28;7211;-73
2022/05/21 13:33:43;;;;;;;;;;;;;;;28.89;27.81;101072.66;4990084;28;6930;-73
2022/05/21 13:36:15;;;;;;;;;;;;;;;28.92;27.82;101072.56;5003694;28;6966;-73
2022/05/21 13:38:48;;;;;;;;;;;;;;;29.18;27.89;101078.25;5006596;28;7192;-73
2022/05/21 13:41:33;;;;;;;;;;;;;;;29.56;27.85;101070.53;5000368;28;6827;-73
2022/05/21 13:44:01;;;;;;;;;;;;;;;29.70;27.26;101070.19;5018280;28;6815;-75
2022/05/21 13:46:32;;;;;;;;;;;;;;;29.67;26.70;101068.53;5005538;28;6883;-74
2022/05/21 13:49:07;;;;;;;;;;;;;;;29.68;27.32;101054.41;5006865;28;6811;-74
2022/05/21 13:51:33;;;;;;;;;;;;;;;30.06;27.81;101049.19;5002106;28;6891;-74
2022/05/21 13:54:00;;;;;;;;;;;;;;;30.39;26.42;101043.13;5003503;28;6804;-74